Time;durP1;ratioP1;P1;durP2;ratioP2;P2;SDS_P1;SDS_P2;PMS_P1;PMS_P2;Temp;Humidity;BMP_temperature;BMP_pressure;BME280_temperature;BME280_humidity;BME280_pressure;Samples;Min_cycle;Max_cycle;Signal;HPM_P1;HPM_P2
2023/07/27 00:04:59;;;;;;;0.10;0.10;;;;;;;;;;10352081;28;20072;-76
2023/07/27 00:09:59;;;;;;;0.17;0.17;;;;;;;;;;10369512;28;20045;-76
2023/07/27 00:14:59;;;;;;;0.10;0.10;;;;;;;;;;10368289;28;20025;-76
2023/07/27 00:19:59;;;;;;;0.10;0.10;;;;;;;;;;10369078;28;20041;-76
2023/07/27 00:24:59;;;;;;;0.10;0.10;;;;;;;;;;10369036;28;20022;-76
2023/07/27 00:30:00;;;;;;;0.10;0.10;;;;;;;;;;10368720;28;20029;-76
2023/07/27 00:35:00;;;;;;;0.10;0.10;;;;;;;;;;10368608;28;20593;-76
2023/07/27 00:40:00;;;;;;;0.10;0.10;;;;;;;;;;10368170;28;20087;-76
2023/07/27 00:45:00;;;;;;;0.10;0.10;;;;;;;;;;10368214;28;20032;-76
2023/07/27 00:50:00;;;;;;;0.15;0.15;;;;;;;;;;10367693;28;20026;-76
2023/07/27 00:55:01;;;;;;;0.10;0.10;;;;;;;;;;10368187;28;20026;-76
2023/07/27 01:00:01;;;;;;;0.00;0.00;;;;;;;;;;10367810;28;20029;-76
2023/07/27 01:05:02;;;;;;;0.10;0.10;;;;;;;;;;10367646;28;20036;-76
2023/07/27 01:10:02;;;;;;;0.10;0.10;;;;;;;;;;10366703;28;20030;-76
2023/07/27 01:15:06;;;;;;;0.10;0.10;;;;;;;;;;10367800;28;20457;-76
2023/07/27 01:20:12;;;;;;;0.10;0.10;;;;;;;;;;10366977;28;20044;-76
2023/07/27 01:25:12;;;;;;;0.10;0.10;;;;;;;;;;10367418;28;20020;-76
2023/07/27 01:30:21;;;;;;;0.10;0.10;;;;;;;;;;10349559;28;20026;-76
2023/07/27 01:35:22;;;;;;;0.10;0.10;;;;;;;;;;10366691;28;20093;-76
2023/07/27 01:40:23;;;;;;;0.00;0.00;;;;;;;;;;10366972;28;20481;-76
2023/07/27 01:45:23;;;;;;;0.10;0.10;;;;;;;;;;10367226;28;20025;-76
2023/07/27 01:50:24;;;;;;;0.10;0.10;;;;;;;;;;10366949;28;20021;-76
2023/07/27 01:55:24;;;;;;;0.10;0.10;;;;;;;;;;10374958;28;20536;-76
2023/07/27 02:00:24;;;;;;;0.10;0.10;;;;;;;;;;10374775;28;20259;-76
2023/07/27 02:05:25;;;;;;;0.10;0.10;;;;;;;;;;10374759;28;20507;-76
2023/07/27 02:10:26;;;;;;;0.10;0.10;;;;;;;;;;10356613;28;20021;-76
2023/07/27 02:15:29;;;;;;;0.00;0.00;;;;;;;;;;10374519;28;20021;-77
2023/07/27 02:20:33;;;;;;;0.10;0.10;;;;;;;;;;10373995;28;20490;-76
2023/07/27 02:25:33;;;;;;;0.10;0.10;;;;;;;;;;10374193;28;20018;-76
2023/07/27 02:30:33;;;;;;;0.10;0.10;;;;;;;;;;10356227;28;20025;-76
2023/07/27 02:35:34;;;;;;;0.10;0.10;;;;;;;;;;10373319;28;20473;-76
2023/07/27 02:40:34;;;;;;;0.10;0.10;;;;;;;;;;10373286;28;20030;-77
2023/07/27 02:45:34;;;;;;;0.10;0.10;;;;;;;;;;10373121;28;20014;-76
2023/07/27 02:50:34;;;;;;;0.10;0.10;;;;;;;;;;10355491;28;20097;-76
2023/07/27 02:55:34;;;;;;;0.10;0.10;;;;;;;;;;10372731;28;20014;-76
2023/07/27 03:00:34;;;;;;;0.10;0.10;;;;;;;;;;10372412;28;20106;-76
2023/07/27 03:05:35;;;;;;;0.10;0.10;;;;;;;;;;10371555;28;20037;-76
2023/07/27 03:10:36;;;;;;;0.10;0.10;;;;;;;;;;10371885;28;20018;-76
2023/07/27 03:15:38;;;;;;;0.10;0.10;;;;;;;;;;10372604;28;20037;-76
2023/07/27 03:20:39;;;;;;;0.10;0.10;;;;;;;;;;10371927;28;20396;-76
2023/07/27 03:25:39;;;;;;;0.08;0.08;;;;;;;;;;10369313;28;20377;-76
2023/07/27 03:30:40;;;;;;;0.10;0.10;;;;;;;;;;10371334;28;20025;-76
2023/07/27 03:35:40;;;;;;;0.10;0.10;;;;;;;;;;10370825;28;20020;-76
2023/07/27 03:40:40;;;;;;;0.00;0.00;;;;;;;;;;10370848;28;20028;-76
2023/07/27 03:45:40;;;;;;;0.10;0.10;;;;;;;;;;10370601;28;20018;-76
2023/07/27 03:50:40;;;;;;;0.10;0.10;;;;;;;;;;10370313;28;20033;-76
2023/07/27 03:55:41;;;;;;;0.03;0.03;;;;;;;;;;10370500;28;20417;-76
2023/07/27 04:00:41;;;;;;;0.10;0.10;;;;;;;;;;10346256;28;21539;-76
2023/07/27 04:05:41;;;;;;;0.10;0.10;;;;;;;;;;10368132;28;20084;-77
2023/07/27 04:10:41;;;;;;;0.10;0.10;;;;;;;;;;10361164;28;20020;-76
2023/07/27 04:15:42;;;;;;;0.10;0.10;;;;;;;;;;10376449;28;20073;-76
2023/07/27 04:20:42;;;;;;;0.10;0.10;;;;;;;;;;10369338;28;20018;-76
2023/07/27 04:25:42;;;;;;;0.10;0.10;;;;;;;;;;10358533;28;20041;-76
2023/07/27 04:30:44;;;;;;;0.00;0.00;;;;;;;;;;10352841;28;20025;-76
2023/07/27 04:35:44;;;;;;;0.10;0.10;;;;;;;;;;10353092;28;20029;-76
2023/07/27 04:40:44;;;;;;;0.10;0.10;;;;;;;;;;10373875;28;20017;-75
2023/07/27 04:45:46;;;;;;;0.10;0.10;;;;;;;;;;10355613;28;20049;-76
2023/07/27 04:50:47;;;;;;;0.10;0.10;;;;;;;;;;10366032;28;20482;-76
2023/07/27 04:55:47;;;;;;;0.13;0.13;;;;;;;;;;10377639;28;20037;-75
2023/07/27 05:00:54;;;;;;;0.10;0.10;;;;;;;;;;10365089;28;20079;-76
2023/07/27 05:05:54;;;;;;;0.08;0.08;;;;;;;;;;10359419;28;20469;-76
2023/07/27 05:10:54;;;;;;;0.10;0.10;;;;;;;;;;10370590;28;20020;-76
2023/07/27 05:15:54;;;;;;;0.10;0.10;;;;;;;;;;10375236;28;20060;-76
2023/07/27 05:20:55;;;;;;;0.10;0.10;;;;;;;;;;10372303;28;20018;-76
2023/07/27 05:25:55;;;;;;;0.10;0.10;;;;;;;;;;10370775;28;20187;-76
2023/07/27 05:30:55;;;;;;;0.10;0.10;;;;;;;;;;10365055;28;20505;-76
2023/07/27 05:35:55;;;;;;;0.10;0.10;;;;;;;;;;10366729;28;20018;-76
2023/07/27 05:41:02;;;;;;;0.10;0.10;;;;;;;;;;10361956;28;20037;-76
2023/07/27 05:46:02;;;;;;;0.10;0.10;;;;;;;;;;10346560;28;20017;-76
2023/07/27 05:51:03;;;;;;;0.10;0.10;;;;;;;;;;10346956;28;20080;-76
2023/07/27 05:56:03;;;;;;;0.00;0.00;;;;;;;;;;10363344;28;20488;-76
2023/07/27 06:01:04;;;;;;;0.10;0.10;;;;;;;;;;10365461;28;20456;-76
2023/07/27 06:06:05;;;;;;;0.10;0.10;;;;;;;;;;10365636;28;20025;-76
2023/07/27 06:11:09;;;;;;;0.10;0.10;;;;;;;;;;10363205;28;20018;-76
2023/07/27 06:16:09;;;;;;;0.10;0.10;;;;;;;;;;10368575;28;20049;-76
2023/07/27 06:21:09;;;;;;;0.10;0.10;;;;;;;;;;10363025;28;20037;-76
2023/07/27 06:26:10;;;;;;;0.10;0.10;;;;;;;;;;10345348;28;20018;-75
2023/07/27 06:31:10;;;;;;;0.10;0.10;;;;;;;;;;10385906;28;20569;-76
2023/07/27 06:36:17;;;;;;;0.10;0.10;;;;;;;;;;10382436;28;20022;-75
2023/07/27 06:41:19;;;;;;;0.10;0.10;;;;;;;;;;10367286;28;20222;-75
2023/07/27 06:46:20;;;;;;;0.10;0.10;;;;;;;;;;10384511;28;20156;-75
2023/07/27 06:51:22;;;;;;;0.10;0.10;;;;;;;;;;10370553;28;20097;-76
2023/07/27 06:56:22;;;;;;;0.20;0.20;;;;;;;;;;10370849;28;20006;-75
2023/07/27 07:01:22;;;;;;;0.10;0.10;;;;;;;;;;10377542;28;20017;-75
2023/07/27 07:06:23;;;;;;;0.10;0.10;;;;;;;;;;10357473;28;20041;-76
2023/07/27 07:11:23;;;;;;;0.10;0.10;;;;;;;;;;10376640;28;20068;-75
2023/07/27 07:16:24;;;;;;;0.10;0.10;;;;;;;;;;10360049;28;20022;-75
2023/07/27 07:21:24;;;;;;;0.10;0.10;;;;;;;;;;10377146;28;20380;-75
2023/07/27 07:26:24;;;;;;;0.00;0.00;;;;;;;;;;10369726;28;20477;-75
2023/07/27 07:31:24;;;;;;;0.00;0.00;;;;;;;;;;10382283;28;20017;-74
2023/07/27 07:36:27;;;;;;;0.10;0.10;;;;;;;;;;10384020;28;20052;-75
2023/07/27 07:41:28;;;;;;;0.10;0.10;;;;;;;;;;10365674;28;20424;-75
2023/07/27 07:46:28;;;;;;;0.10;0.10;;;;;;;;;;10358656;28;20076;-76
2023/07/27 07:51:28;;;;;;;0.10;0.10;;;;;;;;;;10369803;28;20084;-74
2023/07/27 07:56:28;;;;;;;0.10;0.10;;;;;;;;;;10363950;28;20014;-74
2023/07/27 08:01:28;;;;;;;0.10;0.10;;;;;;;;;;10359207;28;20420;-74
2023/07/27 08:06:28;;;;;;;0.10;0.10;;;;;;;;;;10350260;28;20480;-75
2023/07/27 08:11:29;;;;;;;0.10;0.10;;;;;;;;;;10373809;28;20075;-75
2023/07/27 08:16:29;;;;;;;0.00;0.00;;;;;;;;;;10368232;28;20018;-75
2023/07/27 08:21:29;;;;;;;0.00;0.00;;;;;;;;;;10367895;28;20096;-75
2023/07/27 08:26:30;;;;;;;0.10;0.10;;;;;;;;;;10366931;28;20028;-75
2023/07/27 08:31:30;;;;;;;0.10;0.10;;;;;;;;;;10365016;28;20018;-74
2023/07/27 08:36:30;;;;;;;0.10;0.10;;;;;;;;;;10381994;28;20065;-75
2023/07/27 08:41:30;;;;;;;0.10;0.10;;;;;;;;;;10372510;28;20014;-76
2023/07/27 08:46:31;;;;;;;0.10;0.10;;;;;;;;;;10355031;28;20018;-75
2023/07/27 08:51:33;;;;;;;0.10;0.10;;;;;;;;;;10364858;28;20018;-76
2023/07/27 08:56:33;;;;;;;0.10;0.10;;;;;;;;;;10349047;28;20045;-76
2023/07/27 09:01:33;;;;;;;0.10;0.10;;;;;;;;;;10372320;28;20045;-76
2023/07/27 09:06:36;;;;;;;0.10;0.10;;;;;;;;;;10375897;28;20021;-76
2023/07/27 09:11:37;;;;;;;0.00;0.00;;;;;;;;;;10366009;28;20054;-76
2023/07/27 09:16:37;;;;;;;0.10;0.10;;;;;;;;;;10365600;28;20465;-76
2023/07/27 09:21:38;;;;;;;0.10;0.10;;;;;;;;;;10365640;28;20022;-75
2023/07/27 09:26:45;;;;;;;0.10;0.10;;;;;;;;;;10364210;28;21112;-76
2023/07/27 09:31:49;;;;;;;0.10;0.10;;;;;;;;;;10365187;28;20030;-76
2023/07/27 09:36:49;;;;;;;;;;;;;;;;;;10364851;28;20113;-76
2023/07/27 09:41:50;;;;;;;0.10;0.10;;;;;;;;;;10372197;28;20012;-76
2023/07/27 09:46:50;;;;;;;0.10;0.10;;;;;;;;;;10414511;22;20049;-74
2023/07/27 09:51:51;;;;;;;0.10;0.10;;;;;;;;;;10416976;28;20143;-75
2023/07/27 09:56:52;;;;;;;0.10;0.10;;;;;;;;;;10412324;28;20022;-74
2023/07/27 10:01:53;;;;;;;0.10;0.10;;;;;;;;;;10410562;28;20151;-74
2023/07/27 10:06:54;;;;;;;0.00;0.00;;;;;;;;;;10413779;28;20022;-74
2023/07/27 10:11:55;;;;;;;0.10;0.10;;;;;;;;;;10421266;28;20030;-75
2023/07/27 10:17:02;;;;;;;0.00;0.00;;;;;;;;;;10422142;28;20024;-75
2023/07/27 10:22:06;;;;;;;0.10;0.10;;;;;;;;;;10429621;28;20045;-75
2023/07/27 10:27:07;;;;;;;0.10;0.10;;;;;;;;;;10410719;28;20110;-75
2023/07/27 10:32:07;;;;;;;0.10;0.10;;;;;;;;;;10424771;28;20045;-73
2023/07/27 10:37:09;;;;;;;0.10;0.10;;;;;;;;;;10427701;28;20075;-75
2023/07/27 10:42:19;;;;;;;0.00;0.00;;;;;;;;;;10432245;28;20072;-75
2023/07/27 10:47:21;;;;;;;0.10;0.10;;;;;;;;;;10430328;28;20443;-75
2023/07/27 10:52:22;;;;;;;0.00;0.00;;;;;;;;;;10431402;28;20048;-74
2023/07/27 10:57:23;;;;;;;0.10;0.10;;;;;;;;;;10423622;28;20396;-75
2023/07/27 11:02:24;;;;;;;0.00;0.00;;;;;;;;;;10427288;28;20024;-76
2023/07/27 11:07:38;;;;;;;0.00;0.00;;;;;;;;;;10424238;28;20021;-74
2023/07/27 11:12:48;;;;;;;0.00;0.00;;;;;;;;;;10431201;28;20067;-73
2023/07/27 11:17:48;;;;;;;0.00;0.00;;;;;;;;;;10426598;28;20013;-74
2023/07/27 11:22:49;;;;;;;0.00;0.00;;;;;;;;;;10432788;28;20442;-74
2023/07/27 11:27:50;;;;;;;0.00;0.00;;;;;;;;;;10426239;28;20020;-74
2023/07/27 11:33:00;;;;;;;0.00;0.00;;;;;;;;;;10417187;28;20024;-75
2023/07/27 11:38:01;;;;;;;0.00;0.00;;;;;;;;;;10414673;28;20025;-74
2023/07/27 11:43:04;;;;;;;0.00;0.00;;;;;;;;;;10411272;28;20025;-75
2023/07/27 11:48:04;;;;;;;0.10;0.10;;;;;;;;;;10408384;28;20037;-75
2023/07/27 11:53:11;;;;;;;0.10;0.10;;;;;;;;;;10428127;28;20029;-74
2023/07/27 11:58:11;;;;;;;0.00;0.00;;;;;;;;;;10410204;28;20021;-74
2023/07/27 12:03:11;;;;;;;0.10;0.10;;;;;;;;;;10413108;28;20029;-74
2023/07/27 12:08:18;;;;;;;0.10;0.10;;;;;;;;;;10414047;28;20063;-75
2023/07/27 12:13:24;;;;;;;0.10;0.10;;;;;;;;;;10428057;28;20427;-75
2023/07/27 12:18:26;;;;;;;0.10;0.10;;;;;;;;;;10418355;28;20014;-74
2023/07/27 12:23:26;;;;;;;0.10;0.10;;;;;;;;;;10428212;28;20483;-74
2023/07/27 12:28:26;;;;;;;0.05;0.05;;;;;;;;;;10428351;28;20028;-74
2023/07/27 12:33:28;;;;;;;0.00;0.00;;;;;;;;;;10426720;28;20060;-76
2023/07/27 12:38:28;;;;;;;0.00;0.00;;;;;;;;;;10420607;28;20024;-74
2023/07/27 12:43:28;;;;;;;0.00;0.00;;;;;;;;;;10415385;28;20491;-74
2023/07/27 12:48:28;;;;;;;0.10;0.10;;;;;;;;;;10420126;28;20404;-74
2023/07/27 12:53:28;;;;;;;0.10;0.10;;;;;;;;;;10415074;28;20013;-74
2023/07/27 12:58:29;;;;;;;0.10;0.10;;;;;;;;;;10428433;28;20014;-75
2023/07/27 13:03:29;;;;;;;0.10;0.10;;;;;;;;;;10432269;28;20457;-74
2023/07/27 13:08:29;;;;;;;0.10;0.10;;;;;;;;;;10424186;28;20091;-74
2023/07/27 13:13:29;;;;;;;0.10;0.10;;;;;;;;;;10433279;28;20024;-74
2023/07/27 13:18:29;;;;;;;0.00;0.00;;;;;;;;;;10410045;28;20272;-75
2023/07/27 13:23:29;;;;;;;0.03;0.03;;;;;;;;;;10413311;28;20534;-76
2023/07/27 13:28:30;;;;;;;0.00;0.00;;;;;;;;;;10430454;28;20027;-77
2023/07/27 13:33:30;;;;;;;0.10;0.10;;;;;;;;;;10418653;28;20037;-77
2023/07/27 13:38:30;;;;;;;0.00;0.00;;;;;;;;;;10412608;28;20052;-77
2023/07/27 13:43:32;;;;;;;0.10;0.10;;;;;;;;;;10414686;28;20021;-77
2023/07/27 13:48:32;;;;;;;0.00;0.00;;;;;;;;;;10432922;28;20037;-77
2023/07/27 13:53:33;;;;;;;0.10;0.10;;;;;;;;;;10414734;28;20476;-77
2023/07/27 13:58:33;;;;;;;0.00;0.00;;;;;;;;;;10446134;28;20025;-77
2023/07/27 14:03:33;;;;;;;0.00;0.00;;;;;;;;;;10425533;28;20033;-77
2023/07/27 14:08:33;;;;;;;0.10;0.10;;;;;;;;;;10429405;28;20098;-78
2023/07/27 14:13:33;;;;;;;0.10;0.10;;;;;;;;;;10452203;28;20037;-77
2023/07/27 14:18:34;;;;;;;0.08;0.08;;;;;;;;;;10414918;28;20018;-77
2023/07/27 14:23:34;;;;;;;0.00;0.00;;;;;;;;;;10414755;28;20562;-77
2023/07/27 14:28:34;;;;;;;0.10;0.10;;;;;;;;;;10414529;28;20510;-77
2023/07/27 14:33:34;;;;;;;0.00;0.00;;;;;;;;;;10437838;28;20365;-76
2023/07/27 14:38:35;;;;;;;0.10;0.10;;;;;;;;;;10416629;28;20027;-76
2023/07/27 14:43:35;;;;;;;0.00;0.00;;;;;;;;;;10414137;28;20087;-77
2023/07/27 14:48:35;;;;;;;0.10;0.10;;;;;;;;;;10425909;28;20037;-76
2023/07/27 14:53:35;;;;;;;0.10;0.10;;;;;;;;;;10430972;28;20051;-76
2023/07/27 14:58:36;;;;;;;0.00;0.00;;;;;;;;;;10454072;28;20021;-76
2023/07/27 15:03:36;;;;;;;0.10;0.10;;;;;;;;;;10455124;28;20032;-77
2023/07/27 15:08:36;;;;;;;0.10;0.10;;;;;;;;;;10449686;28;20022;-76
2023/07/27 15:13:37;;;;;;;0.10;0.10;;;;;;;;;;10445998;28;20029;-76
2023/07/27 15:18:38;;;;;;;0.10;0.10;;;;;;;;;;10443397;28;20067;-79
2023/07/27 15:23:38;;;;;;;0.10;0.10;;;;;;;;;;10428864;28;20017;-80
2023/07/27 15:28:39;;;;;;;0.10;0.10;;;;;;;;;;10426211;28;20013;-78
2023/07/27 15:33:39;;;;;;;0.10;0.10;;;;;;;;;;10431534;28;20017;-79
2023/07/27 15:38:40;;;;;;;0.10;0.10;;;;;;;;;;10428604;28;20097;-79
2023/07/27 15:43:40;;;;;;;0.10;0.10;;;;;;;;;;10439102;28;20014;-78
2023/07/27 15:48:42;;;;;;;0.10;0.10;;;;;;;;;;10433206;28;20032;-78
2023/07/27 15:53:42;;;;;;;0.10;0.10;;;;;;;;;;10409615;22;20066;-78
2023/07/27 15:58:42;;;;;;;0.10;0.10;;;;;;;;;;10392618;28;20014;-78
2023/07/27 16:03:42;;;;;;;0.05;0.05;;;;;;;;;;10367723;28;20028;-78
2023/07/27 16:08:42;;;;;;;0.08;0.08;;;;;;;;;;10384670;28;20099;-78
2023/07/27 16:13:43;;;;;;;0.10;0.10;;;;;;;;;;10398071;28;20017;-78
2023/07/27 16:18:43;;;;;;;0.10;0.10;;;;;;;;;;10388125;28;20009;-78
2023/07/27 16:23:43;;;;;;;0.10;0.10;;;;;;;;;;10382044;28;20049;-78
2023/07/27 16:28:43;;;;;;;0.00;0.00;;;;;;;;;;10380050;28;20017;-78
2023/07/27 16:33:44;;;;;;;0.00;0.00;;;;;;;;;;10380504;28;20028;-78
2023/07/27 16:38:45;;;;;;;0.10;0.10;;;;;;;;;;10409951;28;20440;-78
2023/07/27 16:43:45;;;;;;;0.10;0.10;;;;;;;;;;10373031;28;20044;-78
2023/07/27 16:48:47;;;;;;;0.10;0.10;;;;;;;;;;10370734;28;20020;-78
2023/07/27 16:53:47;;;;;;;0.10;0.10;;;;;;;;;;10396352;28;20029;-78
2023/07/27 16:58:49;;;;;;;0.00;0.00;;;;;;;;;;10386062;28;20020;-78
2023/07/27 17:03:49;;;;;;;0.10;0.10;;;;;;;;;;10409276;28;20021;-78
2023/07/27 17:08:50;;;;;;;0.10;0.10;;;;;;;;;;10394276;28;20078;-77
2023/07/27 17:13:50;;;;;;;0.00;0.00;;;;;;;;;;10379162;28;20021;-78
2023/07/27 17:18:50;;;;;;;0.10;0.10;;;;;;;;;;10406514;28;20075;-78
2023/07/27 17:23:50;;;;;;;0.10;0.10;;;;;;;;;;10395207;28;20026;-78
2023/07/27 17:28:51;;;;;;;0.10;0.10;;;;;;;;;;10395868;28;20018;-78
2023/07/27 17:33:51;;;;;;;0.00;0.00;;;;;;;;;;10370312;28;20033;-78
2023/07/27 17:38:51;;;;;;;0.10;0.10;;;;;;;;;;10396503;28;20542;-77
2023/07/27 17:43:51;;;;;;;0.00;0.00;;;;;;;;;;10378666;28;20405;-77
2023/07/27 17:48:51;;;;;;;0.10;0.10;;;;;;;;;;10378650;28;20025;-77
2023/07/27 17:53:51;;;;;;;0.10;0.10;;;;;;;;;;10383350;28;20045;-77
2023/07/27 17:58:52;;;;;;;0.00;0.00;;;;;;;;;;10367678;28;20374;-77
2023/07/27 18:03:52;;;;;;;0.10;0.10;;;;;;;;;;10391133;28;20025;-77
2023/07/27 18:08:54;;;;;;;0.10;0.10;;;;;;;;;;10396010;28;20104;-77
2023/07/27 18:13:55;;;;;;;0.10;0.10;;;;;;;;;;10387371;28;20319;-77
2023/07/27 18:18:56;;;;;;;0.10;0.10;;;;;;;;;;10358244;28;20056;-77
2023/07/27 18:23:56;;;;;;;0.10;0.10;;;;;;;;;;10396738;28;20113;-77
2023/07/27 18:28:57;;;;;;;0.10;0.10;;;;;;;;;;10394859;28;20441;-77
2023/07/27 18:33:59;;;;;;;0.10;0.10;;;;;;;;;;10391701;28;20026;-77
2023/07/27 18:38:59;;;;;;;0.10;0.10;;;;;;;;;;10382439;28;20129;-78
2023/07/27 18:43:59;;;;;;;0.10;0.10;;;;;;;;;;10397424;28;20045;-77
2023/07/27 18:49:00;;;;;;;0.10;0.10;;;;;;;;;;10391283;28;20025;-77
2023/07/27 18:54:00;;;;;;;0.10;0.10;;;;;;;;;;10392971;28;20018;-77
2023/07/27 18:59:00;;;;;;;0.10;0.10;;;;;;;;;;10365363;28;20113;-77
2023/07/27 19:04:00;;;;;;;0.10;0.10;;;;;;;;;;10388824;28;20086;-77
2023/07/27 19:09:01;;;;;;;0.10;0.10;;;;;;;;;;10409131;28;20401;-78
2023/07/27 19:14:01;;;;;;;0.00;0.00;;;;;;;;;;10379130;28;20088;-78
2023/07/27 19:19:01;;;;;;;0.10;0.10;;;;;;;;;;10402565;28;20029;-78
2023/07/27 19:24:01;;;;;;;0.10;0.10;;;;;;;;;;10412919;28;20271;-78
2023/07/27 19:29:05;;;;;;;0.10;0.10;;;;;;;;;;10380890;28;20052;-79
2023/07/27 19:34:06;;;;;;;0.00;0.00;;;;;;;;;;10374595;28;20018;-78
2023/07/27 19:39:06;;;;;;;0.10;0.10;;;;;;;;;;10387302;28;20494;-78
2023/07/27 19:44:07;;;;;;;0.10;0.10;;;;;;;;;;10395864;28;20017;-79
2023/07/27 19:49:07;;;;;;;0.10;0.10;;;;;;;;;;10376318;28;20026;-78
2023/07/27 19:54:09;;;;;;;0.10;0.10;;;;;;;;;;10377231;28;20032;-79
2023/07/27 19:59:09;;;;;;;0.10;0.10;;;;;;;;;;10369036;28;20075;-78
2023/07/27 20:04:10;;;;;;;0.07;0.07;;;;;;;;;;10374414;28;20076;-78
2023/07/27 20:09:10;;;;;;;0.10;0.10;;;;;;;;;;10381217;28;20430;-78
2023/07/27 20:14:11;;;;;;;0.10;0.10;;;;;;;;;;10371192;28;20022;-78
2023/07/27 20:19:11;;;;;;;0.00;0.00;;;;;;;;;;10390254;28;20010;-78
2023/07/27 20:24:15;;;;;;;0.10;0.10;;;;;;;;;;10383072;28;20017;-78
2023/07/27 20:29:15;;;;;;;;;;;;;;;;;;10378974;28;20478;-78
2023/07/27 20:34:15;;;;;;;0.10;0.10;;;;;;;;;;10373708;28;19913;-78
2023/07/27 20:39:16;;;;;;;0.10;0.10;;;;;;;;;;10360432;28;20064;-78
2023/07/27 20:44:16;;;;;;;0.10;0.10;;;;;;;;;;10379917;28;20101;-78
2023/07/27 20:49:16;;;;;;;0.00;0.00;;;;;;;;;;10389860;28;20469;-78
2023/07/27 20:54:16;;;;;;;0.10;0.10;;;;;;;;;;10356735;28;20209;-78
2023/07/27 20:59:16;;;;;;;0.10;0.10;;;;;;;;;;10380214;28;20018;-78
2023/07/27 21:04:16;;;;;;;0.10;0.10;;;;;;;;;;10369969;28;20401;-79
2023/07/27 21:09:17;;;;;;;0.10;0.10;;;;;;;;;;10399682;28;20014;-78
2023/07/27 21:14:17;;;;;;;0.10;0.10;;;;;;;;;;10376638;28;20030;-78
2023/07/27 21:19:17;;;;;;;0.10;0.10;;;;;;;;;;10374347;28;20083;-77
2023/07/27 21:24:17;;;;;;;0.10;0.10;;;;;;;;;;10375971;28;20013;-77
2023/07/27 21:29:17;;;;;;;0.10;0.10;;;;;;;;;;10372613;28;20439;-78
2023/07/27 21:34:18;;;;;;;0.10;0.10;;;;;;;;;;10380448;28;20022;-78
2023/07/27 21:39:18;;;;;;;0.10;0.10;;;;;;;;;;10369460;28;20014;-77
2023/07/27 21:44:18;;;;;;;0.10;0.10;;;;;;;;;;10364227;28;20082;-77
2023/07/27 21:49:18;;;;;;;0.10;0.10;;;;;;;;;;10380925;28;20018;-77
2023/07/27 21:54:19;;;;;;;0.10;0.10;;;;;;;;;;10367294;28;20058;-77
2023/07/27 21:59:19;;;;;;;0.10;0.10;;;;;;;;;;10349790;28;20064;-77
2023/07/27 22:04:19;;;;;;;0.10;0.10;;;;;;;;;;10397850;23;20132;-78
2023/07/27 22:09:19;;;;;;;0.10;0.10;;;;;;;;;;10379176;28;20021;-79
2023/07/27 22:14:19;;;;;;;0.10;0.10;;;;;;;;;;10378793;28;20285;-79
2023/07/27 22:19:20;;;;;;;0.10;0.10;;;;;;;;;;10378079;28;20014;-78
2023/07/27 22:24:20;;;;;;;0.10;0.10;;;;;;;;;;10362476;28;20029;-77
2023/07/27 22:29:20;;;;;;;0.10;0.10;;;;;;;;;;10357639;28;20033;-77
2023/07/27 22:34:20;;;;;;;0.00;0.00;;;;;;;;;;10354034;28;20104;-77
2023/07/27 22:39:20;;;;;;;0.10;0.10;;;;;;;;;;10355513;28;20014;-77
2023/07/27 22:44:21;;;;;;;0.10;0.10;;;;;;;;;;10358548;28;20398;-77
2023/07/27 22:49:21;;;;;;;0.00;0.00;;;;;;;;;;10359561;28;20468;-77
2023/07/27 22:54:21;;;;;;;0.10;0.10;;;;;;;;;;10352242;28;20018;-77
2023/07/27 22:59:21;;;;;;;0.10;0.10;;;;;;;;;;10373392;28;20018;-77
2023/07/27 23:04:21;;;;;;;0.10;0.10;;;;;;;;;;10373048;28;20060;-77
2023/07/27 23:09:22;;;;;;;0.00;0.00;;;;;;;;;;10362065;28;20362;-77
2023/07/27 23:14:22;;;;;;;0.00;0.00;;;;;;;;;;10368496;28;20018;-77
2023/07/27 23:19:23;;;;;;;0.10;0.10;;;;;;;;;;10368510;28;20018;-77
2023/07/27 23:24:23;;;;;;;0.10;0.10;;;;;;;;;;10363053;28;20477;-77
2023/07/27 23:29:24;;;;;;;0.00;0.00;;;;;;;;;;10349464;28;20025;-77
2023/07/27 23:34:24;;;;;;;0.10;0.10;;;;;;;;;;10350350;28;20457;-77
2023/07/27 23:39:24;;;;;;;0.08;0.08;;;;;;;;;;10352843;28;20014;-77
2023/07/27 23:44:24;;;;;;;0.10;0.10;;;;;;;;;;10353552;28;20075;-77
2023/07/27 23:49:25;;;;;;;0.10;0.10;;;;;;;;;;10365906;28;20109;-77
2023/07/27 23:54:25;;;;;;;0.10;0.10;;;;;;;;;;10366927;28;20053;-78
2023/07/27 23:59:25;;;;;;;0.10;0.10;;;;;;;;;;10345782;28;20018;-78
